Lakeside, Texas
Current Conditions -  °F | °C
As of 9:53 AM on Sunday 25 Jan 2015 (Local Time) from KFTW Reporting Station
Clear Clear  
Wind Chill: 56°   Ceiling: Unl
Heat Index: 56°   Visibility: 10mi
Dew Point: 36°   Wind: 18mph
Humidity: 47%   Direction: 320°NW
Pressure: 30.05"   Gusts: 24mph
Location:  32.8392°N, 97.4646°W
Report Text: KFTW 251553Z 32016G21KT 10SM CLR 13/02 A3005 RMK AO2 SLP174 T01330022
Loading
Personal Weather Stations






























Interactive Weather Map New forecast layout! Learn more

10-Day Weather Forecast

Advertisements
Track Severe Weather on mobile